Time;durP1;ratioP1;P1;durP2;ratioP2;P2;SDS_P1;SDS_P2;PMS_P1;PMS_P2;Temp;Humidity;BMP_temperature;BMP_pressure;BME280_temperature;BME280_humidity;BME280_pressure;Samples;Min_cycle;Max_cycle;Signal;HPM_P1;HPM_P2
2022/12/11 00:01:50;;;;;;;0.80;0.80;;;;;;;-0.86;100.00;101131.31;4983006;28;20033;-72
2022/12/11 00:04:15;;;;;;;0.70;0.70;;;;;;;-0.81;100.00;101133.84;4982017;28;20030;-71
2022/12/11 00:06:41;;;;;;;0.95;0.95;;;;;;;-0.84;100.00;101121.63;4971849;28;20080;-74
2022/12/11 00:09:07;;;;;;;0.60;0.60;;;;;;;-0.60;100.00;101150.88;4959461;28;20058;-72
2022/12/11 00:11:32;;;;;;;1.00;1.00;;;;;;;-0.80;100.00;101144.38;4974226;28;20577;-72
2022/12/11 00:13:57;;;;;;;0.80;0.80;;;;;;;-0.67;100.00;101130.84;4975153;28;20532;-72
2022/12/11 00:16:23;;;;;;;0.77;0.77;;;;;;;-0.67;100.00;101120.28;4963129;28;20580;-73
2022/12/11 00:18:48;;;;;;;1.00;1.00;;;;;;;-0.71;100.00;101137.97;4971641;28;20033;-72
2022/12/11 00:21:14;;;;;;;1.20;1.20;;;;;;;-0.62;100.00;101137.72;4971367;28;20161;-72
2022/12/11 00:23:40;;;;;;;1.20;1.20;;;;;;;-0.70;100.00;101120.38;4979502;28;20086;-72
2022/12/11 00:26:12;;;;;;;0.80;0.80;;;;;;;-0.67;100.00;101130.84;4980254;28;20034;-72
2022/12/11 00:28:37;;;;;;;1.02;1.02;;;;;;;-0.74;100.00;101121.34;4969137;28;20026;-73
2022/12/11 00:31:04;;;;;;;1.42;1.40;;;;;;;-0.80;100.00;101115.34;4971805;28;20275;-72
2022/12/11 00:33:31;;;;;;;1.08;1.08;;;;;;;-0.98;100.00;101108.78;4981506;28;20145;-73
2022/12/11 00:35:57;;;;;;;0.90;0.90;;;;;;;-0.92;100.00;101120.94;4984473;28;20109;-72
2022/12/11 00:38:23;;;;;;;1.40;1.40;;;;;;;-0.90;100.00;101113.84;4996116;28;20476;-72
2022/12/11 00:40:48;;;;;;;1.15;1.15;;;;;;;-0.56;100.00;101120.88;4984351;28;20037;-72
2022/12/11 00:43:13;;;;;;;0.93;0.93;;;;;;;-0.80;100.00;101118.00;4970851;28;20029;-72
2022/12/11 00:45:41;;;;;;;1.20;1.10;;;;;;;-0.92;100.00;101123.56;4983479;28;20396;-73
2022/12/11 00:48:07;;;;;;;1.50;1.50;;;;;;;-0.71;100.00;101145.88;4996899;28;20148;-72
2022/12/11 00:50:33;;;;;;;1.17;1.13;;;;;;;-0.99;100.00;101111.44;4975985;28;20057;-72
2022/12/11 00:52:59;;;;;;;1.25;1.17;;;;;;;-0.65;100.00;101136.94;4988402;28;20124;-73
2022/12/11 00:55:26;;;;;;;1.55;1.45;;;;;;;-0.95;100.00;101118.38;4977576;28;20136;-73
2022/12/11 00:57:52;;;;;;;1.63;1.52;;;;;;;-1.14;100.00;101084.56;4982033;28;20116;-72
2022/12/11 01:00:17;;;;;;;1.33;1.33;;;;;;;-0.72;100.00;101136.25;4981007;28;20033;-72
2022/12/11 01:02:44;;;;;;;1.17;1.17;;;;;;;-0.86;100.00;101128.69;4977303;28;20026;-72
2022/12/11 01:05:09;;;;;;;1.80;1.70;;;;;;;-0.82;100.00;101092.56;4983994;28;20029;-72
2022/12/11 01:07:35;;;;;;;1.60;1.50;;;;;;;-0.81;100.00;101107.47;4967140;28;20373;-72
2022/12/11 01:12:44;;;;;;;1.95;1.85;;;;;;;-0.76;100.00;101124.03;4978876;28;20032;-73
2022/12/11 01:15:10;;;;;;;1.27;1.27;;;;;;;-0.76;100.00;101118.78;4974513;28;20025;-72
2022/12/11 01:17:36;;;;;;;1.83;1.73;;;;;;;-0.83;100.00;101099.63;4988034;28;20395;-72
2022/12/11 01:20:03;;;;;;;1.90;1.80;;;;;;;-0.80;100.00;101103.94;4992555;28;20049;-72
2022/12/11 01:22:28;;;;;;;2.00;1.90;;;;;;;-0.82;100.00;101122.44;4979316;28;21543;-72
2022/12/11 01:24:54;;;;;;;0.85;0.85;;;;;;;-0.69;100.00;101117.72;4969001;28;20025;-72
2022/12/11 01:27:19;;;;;;;1.30;1.30;;;;;;;-0.97;100.00;101086.78;4979220;28;20555;-72
2022/12/11 01:29:44;;;;;;;1.20;1.20;;;;;;;-0.82;100.00;101121.56;4996329;28;20041;-72
2022/12/11 01:32:10;;;;;;;2.00;1.90;;;;;;;-0.61;100.00;101113.06;4961962;28;20054;-72
2022/12/11 01:34:35;;;;;;;1.45;1.45;;;;;;;-0.79;100.00;101118.84;5001838;28;20053;-72
2022/12/11 01:37:00;;;;;;;1.30;1.30;;;;;;;-0.76;100.00;101098.53;4981165;28;20534;-72
2022/12/11 01:39:25;;;;;;;1.38;1.33;;;;;;;-0.65;100.00;101116.69;4999697;28;20514;-72
2022/12/11 01:41:56;;;;;;;1.60;1.50;;;;;;;-0.89;100.00;101112.94;4961833;28;20061;-72
2022/12/11 01:44:21;;;;;;;2.05;1.95;;;;;;;-0.65;100.00;101115.84;4991505;28;20018;-72
2022/12/11 01:46:46;;;;;;;1.00;1.00;;;;;;;-0.92;100.00;101078.75;4979580;28;20041;-73
2022/12/11 01:49:13;;;;;;;1.92;1.83;;;;;;;-0.64;100.00;101110.53;4984735;28;20033;-72
2022/12/11 01:51:41;;;;;;;1.15;1.15;;;;;;;-0.84;100.00;101095.25;4974180;28;20044;-72
2022/12/11 01:54:09;;;;;;;1.50;1.48;;;;;;;-0.59;100.00;101117.44;4981209;28;20064;-72
2022/12/11 01:56:36;;;;;;;1.05;1.05;;;;;;;-0.83;100.00;101094.34;4982158;28;20579;-73
2022/12/11 01:59:07;;;;;;;0.95;0.95;;;;;;;-0.88;100.00;101084.81;4971547;28;20026;-72
2022/12/11 02:01:36;;;;;;;1.00;1.00;;;;;;;-0.74;100.00;101114.31;4982820;28;20811;-72
2022/12/11 02:04:02;;;;;;;1.00;1.00;;;;;;;-0.76;100.00;101110.84;4981250;28;20034;-72
2022/12/11 02:06:31;;;;;;;0.75;0.75;;;;;;;-0.68;100.00;101106.25;4969387;28;20037;-72
2022/12/11 02:08:56;;;;;;;0.90;0.90;;;;;;;-0.86;100.00;101077.72;4981625;28;20488;-72
2022/12/11 02:11:27;;;;;;;1.00;1.00;;;;;;;-0.82;100.00;101106.63;4976147;28;20042;-73
2022/12/11 02:14:04;;;;;;;0.80;0.80;;;;;;;-0.76;100.00;101090.63;4992973;28;20034;-72
2022/12/11 02:16:37;;;;;;;1.05;1.05;;;;;;;-0.72;100.00;101088.78;4980876;28;20029;-72
2022/12/11 02:19:33;;;;;;;0.80;0.80;;;;;;;-0.66;100.00;101093.88;4961440;28;20278;-72
2022/12/11 02:22:02;;;;;;;0.93;0.93;;;;;;;-0.78;100.00;101083.66;4975096;28;20099;-72
2022/12/11 02:24:56;;;;;;;0.70;0.70;;;;;;;-0.69;100.00;101093.09;4974804;28;20026;-71
2022/12/11 02:27:39;;;;;;;0.80;0.80;;;;;;;-0.65;100.00;101094.75;4981667;28;20037;-72
2022/12/11 02:30:06;;;;;;;0.70;0.70;;;;;;;-0.55;100.00;101090.97;4973274;28;20034;-72
2022/12/11 02:32:57;;;;;;;0.95;0.95;;;;;;;-0.41;100.00;101087.06;4975841;28;20042;-72
2022/12/11 02:35:30;;;;;;;0.70;0.70;;;;;;;-0.60;100.00;101079.66;4974127;28;20042;-72
2022/12/11 02:37:59;;;;;;;1.00;1.00;;;;;;;-0.62;100.00;101081.47;4979672;28;20456;-72
2022/12/11 02:40:29;;;;;;;0.80;0.80;;;;;;;-0.63;100.00;101077.13;4981836;28;20026;-72
2022/12/11 02:42:56;;;;;;;1.10;1.10;;;;;;;-0.41;100.00;101082.66;4966367;28;20342;-72
2022/12/11 02:45:23;;;;;;;0.90;0.90;;;;;;;-0.28;100.00;101087.59;4963207;28;20040;-72
2022/12/11 02:47:49;;;;;;;0.70;0.70;;;;;;;-0.58;100.00;101074.34;4996804;28;20365;-72
2022/12/11 02:50:18;;;;;;;0.75;0.75;;;;;;;-0.45;100.00;101088.94;4972686;28;20473;-72
2022/12/11 02:52:45;;;;;;;0.80;0.80;;;;;;;-0.32;100.00;101070.97;4998108;28;20052;-72
2022/12/11 02:55:11;;;;;;;0.80;0.80;;;;;;;-0.23;100.00;101075.13;4976010;28;20460;-73
2022/12/11 02:57:56;;;;;;;0.70;0.70;;;;;;;-0.24;100.00;101074.25;4975046;28;20037;-72
2022/12/11 03:00:21;;;;;;;0.82;0.82;;;;;;;-0.45;100.00;101086.28;4987257;28;20034;-72
2022/12/11 03:02:47;;;;;;;0.90;0.90;;;;;;;-0.56;100.00;101056.69;5000980;28;20040;-72
2022/12/11 03:05:13;;;;;;;0.70;0.70;;;;;;;-0.39;100.00;101077.34;4988258;28;20057;-72
2022/12/11 03:07:40;;;;;;;0.57;0.57;;;;;;;-0.57;100.00;101068.16;5000721;28;20034;-72
2022/12/11 03:10:09;;;;;;;0.40;0.40;;;;;;;-0.45;100.00;101057.28;4989589;28;20048;-72
2022/12/11 03:12:37;;;;;;;0.70;0.70;;;;;;;-0.40;100.00;101057.13;4978820;28;20033;-72
2022/12/11 03:15:06;;;;;;;0.80;0.80;;;;;;;-0.31;100.00;101056.88;5002605;28;20426;-72
2022/12/11 03:17:37;;;;;;;0.57;0.57;;;;;;;-0.39;100.00;101058.88;4982184;28;20365;-72
2022/12/11 03:20:12;;;;;;;0.60;0.60;;;;;;;-0.51;100.00;101074.13;4977740;28;20869;-72
2022/12/11 03:23:13;;;;;;;0.70;0.70;;;;;;;-0.37;100.00;101067.59;4990098;28;20026;-72
2022/12/11 03:25:49;;;;;;;0.80;0.80;;;;;;;-0.35;100.00;101056.09;4958188;28;20494;-72
2022/12/11 03:28:18;;;;;;;0.90;0.90;;;;;;;-0.36;100.00;101056.16;4980915;28;20117;-72
2022/12/11 03:30:45;;;;;;;0.50;0.50;;;;;;;-0.22;100.00;101055.75;4983730;28;20412;-72
2022/12/11 03:33:22;;;;;;;0.57;0.57;;;;;;;-0.35;100.00;101052.59;4980805;28;20059;-72
2022/12/11 03:35:50;;;;;;;0.50;0.50;;;;;;;-0.29;100.00;101051.56;4980135;28;20124;-72
2022/12/11 03:38:23;;;;;;;0.57;0.57;;;;;;;-0.61;100.00;101015.50;4977984;28;20554;-72
2022/12/11 03:40:52;;;;;;;0.70;0.70;;;;;;;-0.35;100.00;101031.50;4963992;28;20033;-73
2022/12/11 03:43:19;;;;;;;0.60;0.60;;;;;;;-0.42;100.00;101040.47;4986547;28;20366;-72
2022/12/11 03:45:45;;;;;;;0.63;0.63;;;;;;;-0.54;100.00;101031.16;4982114;28;20057;-72
2022/12/11 03:48:12;;;;;;;0.57;0.57;;;;;;;-0.54;100.00;101045.22;4970282;28;20450;-72
2022/12/11 03:50:38;;;;;;;0.50;0.50;;;;;;;-0.47;100.00;101044.13;4992203;28;20026;-72
2022/12/11 03:53:04;;;;;;;0.57;0.57;;;;;;;-0.47;100.00;101028.28;4980431;28;20057;-72
2022/12/11 03:55:31;;;;;;;0.40;0.40;;;;;;;-0.55;100.00;101034.69;4984656;28;20100;-72
2022/12/11 03:57:57;;;;;;;0.47;0.47;;;;;;;-0.46;100.00;101047.63;4980551;28;20486;-72
2022/12/11 04:00:22;;;;;;;0.40;0.40;;;;;;;-0.40;100.00;101070.31;4975425;28;20019;-72
2022/12/11 04:03:11;;;;;;;0.40;0.40;;;;;;;-0.38;100.00;101057.97;4976564;28;20504;-72
2022/12/11 04:05:34;;;;;;;0.55;0.55;;;;;;;-0.56;100.00;101032.97;4982828;28;20040;-72
2022/12/11 04:07:59;;;;;;;0.50;0.50;;;;;;;-0.33;100.00;101056.91;4965960;28;20038;-72
2022/12/11 04:10:25;;;;;;;0.55;0.55;;;;;;;-0.10;100.00;101052.72;4964965;28;20025;-72
2022/12/11 04:12:50;;;;;;;0.65;0.65;;;;;;;-0.19;100.00;101050.38;4975868;28;20102;-72
2022/12/11 04:15:15;;;;;;;0.30;0.30;;;;;;;-0.25;100.00;101045.28;4994733;28;20034;-72
2022/12/11 04:26:10;;;;;;;0.40;0.40;;;;;;;-0.31;100.00;101022.59;4982091;28;20084;-72
2022/12/11 04:28:36;;;;;;;0.45;0.45;;;;;;;-0.18;100.00;101042.41;4978261;28;20021;-72
2022/12/11 04:31:02;;;;;;;0.40;0.40;;;;;;;-0.19;100.00;101038.03;4982571;28;20197;-72
2022/12/11 04:33:27;;;;;;;0.50;0.50;;;;;;;-0.36;100.00;101004.22;4972447;28;20028;-73
2022/12/11 04:35:53;;;;;;;0.40;0.40;;;;;;;-0.16;100.00;101035.31;4978997;28;20054;-72
2022/12/11 04:38:18;;;;;;;0.50;0.50;;;;;;;-0.20;100.00;101032.81;4992798;28;20029;-72
2022/12/11 04:40:43;;;;;;;0.40;0.40;;;;;;;-0.11;100.00;101032.53;4992674;28;20030;-72
2022/12/11 04:43:10;;;;;;;0.50;0.50;;;;;;;-0.16;100.00;101032.66;4991039;28;20050;-72
2022/12/11 04:45:35;;;;;;;0.40;0.40;;;;;;;-0.36;100.00;101006.88;4994150;28;20034;-72
2022/12/11 04:48:00;;;;;;;0.50;0.50;;;;;;;-0.17;100.00;101035.38;4992271;28;20040;-72
2022/12/11 04:50:26;;;;;;;0.40;0.40;;;;;;;-0.20;100.00;101031.03;4973348;28;20037;-73
2022/12/11 04:52:55;;;;;;;0.40;0.40;;;;;;;-0.24;100.00;101039.94;4975921;28;20479;-73
2022/12/11 04:55:20;;;;;;;0.43;0.43;;;;;;;-0.14;100.00;101031.75;4978711;28;20107;-73
2022/12/11 04:57:46;;;;;;;0.43;0.43;;;;;;;-0.29;100.00;101009.31;4996819;28;20469;-73
2022/12/11 05:00:12;;;;;;;0.30;0.30;;;;;;;0.00;100.00;101045.41;4996317;28;20066;-72
2022/12/11 05:02:37;;;;;;;0.40;0.40;;;;;;;-0.23;100.00;101017.06;4974804;28;20080;-73
2022/12/11 05:05:04;;;;;;;0.30;0.30;;;;;;;-0.11;100.00;101044.88;4996707;28;20046;-72
2022/12/11 05:07:30;;;;;;;0.50;0.50;;;;;;;-0.20;100.00;101038.09;4981003;28;20022;-72
2022/12/11 05:09:55;;;;;;;0.30;0.30;;;;;;;-0.27;100.00;101032.13;4995756;28;20083;-72
2022/12/11 05:12:21;;;;;;;0.30;0.30;;;;;;;-0.23;100.00;101032.91;4979694;28;20428;-72
2022/12/11 05:14:46;;;;;;;0.30;0.30;;;;;;;-0.26;100.00;101041.75;4998297;28;20534;-72
2022/12/11 05:17:12;;;;;;;0.40;0.40;;;;;;;-0.35;100.00;101047.31;4998130;28;20030;-72
2022/12/11 05:19:38;;;;;;;0.25;0.25;;;;;;;-0.38;100.00;101053.53;4978068;28;20029;-72
2022/12/11 05:22:03;;;;;;;0.30;0.30;;;;;;;-0.35;100.00;101039.41;4979335;28;20502;-72
2022/12/11 05:24:29;;;;;;;0.20;0.20;;;;;;;-0.53;100.00;101017.91;4981577;28;20112;-72
2022/12/11 05:26:54;;;;;;;0.20;0.20;;;;;;;-0.35;100.00;101050.81;4977933;28;20038;-72
2022/12/11 05:29:20;;;;;;;0.30;0.30;;;;;;;-0.42;100.00;101038.72;4960765;28;20065;-72
2022/12/11 05:31:45;;;;;;;0.30;0.30;;;;;;;-0.37;100.00;101042.06;4981813;28;20041;-72
2022/12/11 05:34:10;;;;;;;0.30;0.30;;;;;;;-0.49;100.00;101013.41;4970011;28;20092;-72
2022/12/11 05:36:37;;;;;;;0.20;0.20;;;;;;;-0.47;100.00;101023.00;4968051;28;20565;-72
2022/12/11 05:39:03;;;;;;;0.20;0.20;;;;;;;-0.38;100.00;101031.56;4986915;28;20491;-72
2022/12/11 05:41:29;;;;;;;0.30;0.30;;;;;;;-0.35;100.00;101024.44;4978344;28;20398;-73
2022/12/11 05:43:55;;;;;;;0.20;0.20;;;;;;;-0.29;100.00;101020.75;4980009;28;20043;-72
2022/12/11 05:46:25;;;;;;;0.20;0.20;;;;;;;-0.21;100.00;101024.03;4977241;28;20022;-72
2022/12/11 05:48:53;;;;;;;0.25;0.25;;;;;;;-0.24;100.00;101015.34;4976849;28;20771;-73
2022/12/11 05:51:19;;;;;;;0.20;0.20;;;;;;;-0.19;100.00;101021.34;4979768;28;20033;-72
2022/12/11 05:53:46;;;;;;;0.25;0.25;;;;;;;-0.19;100.00;101011.63;4976491;28;20452;-73
2022/12/11 05:56:12;;;;;;;0.20;0.20;;;;;;;-0.12;100.00;101017.59;4979445;28;20076;-73
2022/12/11 05:58:39;;;;;;;0.20;0.20;;;;;;;-0.22;100.00;101011.72;4964805;28;20100;-73
2022/12/11 06:01:09;;;;;;;0.20;0.20;;;;;;;-0.10;100.00;101015.78;4999933;28;20247;-73
2022/12/11 06:03:35;;;;;;;0.20;0.20;;;;;;;-0.04;100.00;101012.94;4980698;28;20033;-73
2022/12/11 06:06:02;;;;;;;0.20;0.20;;;;;;;-0.02;100.00;101026.13;4995968;28;20088;-72
2022/12/11 06:08:28;;;;;;;0.20;0.20;;;;;;;-0.12;100.00;101024.66;4992516;28;20120;-73
2022/12/11 06:10:53;;;;;;;0.20;0.20;;;;;;;-0.19;100.00;101016.91;4992561;28;20026;-73
2022/12/11 06:13:18;;;;;;;0.20;0.20;;;;;;;-0.26;100.00;101001.31;4962653;28;20141;-73
2022/12/11 06:15:44;;;;;;;0.20;0.20;;;;;;;-0.18;100.00;101026.56;4978828;28;20027;-73
2022/12/11 06:18:09;;;;;;;0.20;0.20;;;;;;;-0.25;100.00;101016.25;4990919;28;20058;-73
2022/12/11 06:20:34;;;;;;;0.20;0.20;;;;;;;-0.42;100.00;101006.19;4995306;28;20036;-72
2022/12/11 06:23:00;;;;;;;0.30;0.30;;;;;;;-0.35;100.00;101028.84;4972107;28;20164;-72
2022/12/11 06:25:26;;;;;;;0.20;0.20;;;;;;;-0.33;100.00;101033.16;4965315;28;20037;-73
2022/12/11 06:27:52;;;;;;;0.30;0.30;;;;;;;-0.37;100.00;101017.47;4994026;28;20113;-73
2022/12/11 06:30:17;;;;;;;0.30;0.30;;;;;;;-0.32;100.00;101026.13;4976741;28;20033;-73
2022/12/11 06:32:43;;;;;;;0.20;0.20;;;;;;;-0.41;100.00;101014.06;4974657;28;20095;-72
2022/12/11 06:35:09;;;;;;;0.30;0.30;;;;;;;-0.17;100.00;101024.81;4978977;28;20453;-72
2022/12/11 06:37:35;;;;;;;0.20;0.20;;;;;;;-0.24;100.00;101028.53;4976407;28;20431;-72
2022/12/11 06:40:01;;;;;;;0.20;0.20;;;;;;;-0.30;100.00;101032.22;4993705;28;20046;-72
2022/12/11 06:42:28;;;;;;;0.30;0.30;;;;;;;-0.22;100.00;101032.00;4987472;28;20342;-72
2022/12/11 06:44:56;;;;;;;0.30;0.30;;;;;;;-0.37;100.00;101002.50;4971161;28;20434;-72
2022/12/11 06:47:21;;;;;;;0.20;0.20;;;;;;;-0.35;100.00;100997.19;4973518;28;20383;-72
2022/12/11 06:49:47;;;;;;;0.30;0.30;;;;;;;-0.20;100.00;101025.75;4992948;28;20451;-72
2022/12/11 06:52:14;;;;;;;0.25;0.25;;;;;;;-0.26;100.00;101025.06;4993553;28;20128;-73
2022/12/11 06:54:39;;;;;;;0.30;0.30;;;;;;;-0.23;100.00;101002.09;4978565;28;20412;-72
2022/12/11 06:57:04;;;;;;;0.30;0.30;;;;;;;-0.22;100.00;101024.06;4977772;28;20030;-72
2022/12/11 06:59:30;;;;;;;0.30;0.30;;;;;;;-0.17;100.00;101027.44;4992333;28;20034;-72
2022/12/11 07:01:55;;;;;;;0.20;0.20;;;;;;;-0.33;100.00;101030.53;4989674;28;20058;-73
2022/12/11 07:04:23;;;;;;;0.30;0.30;;;;;;;-0.40;100.00;101034.28;4966157;28;20035;-72
2022/12/11 07:06:48;;;;;;;0.30;0.30;;;;;;;-0.24;100.00;101042.56;4979320;28;20468;-72
2022/12/11 07:09:14;;;;;;;0.30;0.30;;;;;;;-0.34;100.00;101038.50;4992008;28;20036;-72
2022/12/11 07:11:39;;;;;;;0.30;0.30;;;;;;;-0.36;100.00;101041.16;4996887;28;20498;-72
2022/12/11 07:14:04;;;;;;;0.30;0.30;;;;;;;-0.46;100.00;101026.53;4995210;28;20582;-72
2022/12/11 07:16:30;;;;;;;0.30;0.30;;;;;;;-0.36;100.00;101040.31;4960903;28;20052;-72
2022/12/11 07:18:55;;;;;;;0.30;0.30;;;;;;;-0.41;100.00;101031.66;4996762;28;20030;-72
2022/12/11 07:21:20;;;;;;;0.30;0.30;;;;;;;-0.45;100.00;101022.97;4975880;28;20092;-72
2022/12/11 07:23:47;;;;;;;0.22;0.22;;;;;;;-0.38;100.00;101032.44;4974955;28;20101;-73
2022/12/11 07:26:15;;;;;;;0.25;0.25;;;;;;;-0.31;100.00;101030.50;4979052;28;20494;-73
2022/12/11 07:28:41;;;;;;;0.20;0.20;;;;;;;-0.18;100.00;101046.84;4972230;28;20030;-73
2022/12/11 07:31:09;;;;;;;0.30;0.30;;;;;;;-0.12;100.00;101049.25;4974728;28;20570;-73
2022/12/11 07:33:34;;;;;;;0.30;0.30;;;;;;;-0.19;100.00;101047.75;4971757;28;20077;-73
2022/12/11 07:36:08;;;;;;;0.20;0.20;;;;;;;-0.25;100.00;101037.34;4997025;28;20059;-73
2022/12/11 07:38:33;;;;;;;0.30;0.30;;;;;;;-0.13;100.00;101042.25;4975708;28;20022;-73
2022/12/11 07:41:04;;;;;;;0.20;0.20;;;;;;;-0.07;100.00;101057.91;4996556;28;20366;-73
2022/12/11 07:43:29;;;;;;;0.20;0.20;;;;;;;-0.08;100.00;101056.19;4974990;28;20037;-73
2022/12/11 07:45:59;;;;;;;0.20;0.20;;;;;;;-0.21;100.00;101033.72;4978224;28;20030;-73
2022/12/11 07:48:25;;;;;;;0.30;0.30;;;;;;;-0.16;100.00;101051.13;4983005;28;20026;-72
2022/12/11 07:50:50;;;;;;;0.30;0.30;;;;;;;-0.31;100.00;101038.41;4996891;28;20049;-73
2022/12/11 07:53:15;;;;;;;0.20;0.20;;;;;;;-0.33;100.00;101046.34;4977139;28;20040;-73
2022/12/11 07:55:41;;;;;;;0.30;0.30;;;;;;;-0.16;100.00;101060.84;4988692;28;20060;-73
2022/12/11 07:58:07;;;;;;;0.20;0.20;;;;;;;-0.21;100.00;101046.91;5004463;28;20052;-73
2022/12/11 08:00:32;;;;;;;0.30;0.30;;;;;;;-0.20;100.00;101052.13;4969586;28;20064;-73
2022/12/11 08:02:58;;;;;;;0.20;0.20;;;;;;;-0.21;100.00;101057.47;4979478;28;20483;-73
2022/12/11 08:05:24;;;;;;;0.30;0.30;;;;;;;-0.23;100.00;101038.19;4963794;28;20452;-73
2022/12/11 08:07:49;;;;;;;0.30;0.30;;;;;;;-0.32;100.00;101026.13;4976870;28;20034;-73
2022/12/11 08:10:14;;;;;;;0.20;0.20;;;;;;;-0.26;100.00;101039.13;4981039;28;20026;-73
2022/12/11 08:12:40;;;;;;;0.25;0.25;;;;;;;-0.08;100.00;101053.53;4975709;28;20045;-73
2022/12/11 08:15:06;;;;;;;0.30;0.30;;;;;;;-0.20;100.00;101046.00;4979969;28;20289;-73
2022/12/11 08:17:31;;;;;;;0.20;0.20;;;;;;;-0.17;100.00;101049.41;4981979;28;20092;-73
2022/12/11 08:19:56;;;;;;;0.20;0.20;;;;;;;-0.25;100.00;101035.56;4973225;28;20477;-73
2022/12/11 08:22:22;;;;;;;0.30;0.30;;;;;;;-0.18;100.00;101042.41;4978310;28;20076;-73
2022/12/11 08:24:48;;;;;;;0.30;0.30;;;;;;;-0.19;100.00;101035.41;4978869;28;20383;-73
2022/12/11 08:27:13;;;;;;;0.30;0.30;;;;;;;-0.20;100.00;101032.81;4983291;28;20265;-73
2022/12/11 08:29:39;;;;;;;0.20;0.20;;;;;;;-0.09;100.00;101043.91;4978426;28;20131;-74
2022/12/11 08:32:04;;;;;;;0.30;0.30;;;;;;;-0.20;100.00;101035.47;4982291;28;20049;-73
2022/12/11 08:34:29;;;;;;;0.30;0.30;;;;;;;-0.15;100.00;101033.53;4992725;28;21540;-73
2022/12/11 08:36:55;;;;;;;0.30;0.30;;;;;;;-0.02;100.00;101048.09;4975526;28;20103;-73
2022/12/11 08:39:20;;;;;;;0.20;0.20;;;;;;;-0.09;100.00;101041.25;4980720;28;20480;-73
2022/12/11 08:41:45;;;;;;;0.20;0.20;;;;;;;-0.08;100.00;101024.50;4979172;28;20045;-73
2022/12/11 08:44:11;;;;;;;0.30;0.30;;;;;;;0.17;100.00;101050.16;4992641;28;20076;-73
2022/12/11 08:46:37;;;;;;;0.30;0.30;;;;;;;0.18;100.00;101051.88;4973588;28;20125;-73
2022/12/11 08:49:03;;;;;;;0.30;0.30;;;;;;;-0.02;100.00;101049.88;4998026;28;20499;-73
2022/12/11 08:51:29;;;;;;;0.30;0.30;;;;;;;0.00;100.00;101045.41;4997487;28;20046;-72
2022/12/11 08:53:56;;;;;;;0.30;0.30;;;;;;;0.05;100.00;101048.75;4979015;28;20033;-73
2022/12/11 08:56:22;;;;;;;0.20;0.20;;;;;;;-0.05;100.00;101044.69;4978260;28;20022;-72
2022/12/11 08:58:48;;;;;;;0.20;0.20;;;;;;;-0.19;100.00;101018.72;4978706;28;20431;-73
2022/12/11 09:01:20;;;;;;;0.30;0.30;;;;;;;-0.08;100.00;101040.34;4966888;28;20077;-73
2022/12/11 09:03:45;;;;;;;0.32;0.32;;;;;;;0.10;100.00;101028.38;4977079;28;20137;-73
2022/12/11 09:06:14;;;;;;;0.25;0.25;;;;;;;0.12;100.00;101038.91;4979149;28;20040;-73
2022/12/11 09:08:40;;;;;;;0.30;0.30;;;;;;;0.23;100.00;101049.97;4963557;28;20029;-73
2022/12/11 09:11:10;;;;;;;0.30;0.30;;;;;;;0.20;100.00;101039.50;4963249;28;20034;-73
2022/12/11 09:13:36;;;;;;;0.30;0.30;;;;;;;0.23;100.00;101036.78;4977900;28;20030;-73
2022/12/11 09:16:11;;;;;;;0.30;0.30;;;;;;;0.12;100.00;101037.09;4962955;28;20025;-72
2022/12/11 09:18:37;;;;;;;0.30;0.30;;;;;;;0.16;100.00;101043.16;4960774;28;20072;-72
2022/12/11 09:21:05;;;;;;;0.30;0.30;;;;;;;0.17;100.00;101015.81;4973831;28;20465;-72
2022/12/11 09:23:31;;;;;;;0.30;0.30;;;;;;;0.29;100.00;101035.69;4961026;28;20028;-72
2022/12/11 09:25:56;;;;;;;0.30;0.30;;;;;;;-0.02;100.00;100999.72;4973217;28;22269;-73
2022/12/11 09:28:22;;;;;;;0.22;0.22;;;;;;;0.32;100.00;101025.03;4961458;28;20029;-72
2022/12/11 09:30:49;;;;;;;0.30;0.30;;;;;;;0.08;100.00;100993.22;4973032;28;20034;-72
2022/12/11 09:33:14;;;;;;;0.40;0.40;;;;;;;0.42;100.00;101012.41;4952960;28;20457;-73
2022/12/11 09:35:39;;;;;;;0.30;0.30;;;;;;;0.17;100.00;101017.63;4971258;28;20034;-73
2022/12/11 09:38:05;;;;;;;0.20;0.20;;;;;;;-0.06;100.00;101008.66;4958991;28;20033;-72
2022/12/11 09:40:30;;;;;;;0.30;0.30;;;;;;;0.00;100.00;101008.47;4974227;28;20502;-73
2022/12/11 09:43:18;;;;;;;0.30;0.30;;;;;;;0.08;100.00;101027.53;4971164;28;20069;-73
2022/12/11 09:45:43;;;;;;;0.20;0.20;;;;;;;0.14;100.00;101032.66;4973362;28;20032;-72
2022/12/11 09:48:10;;;;;;;0.30;0.30;;;;;;;0.50;100.00;101041.22;4973805;28;20034;-72
2022/12/11 09:50:35;;;;;;;0.30;0.30;;;;;;;0.14;100.00;101005.34;4961406;28;20034;-72
2022/12/11 09:53:11;;;;;;;0.30;0.30;;;;;;;0.04;100.00;101001.31;4980609;28;20080;-72
2022/12/11 09:56:06;;;;;;;0.40;0.40;;;;;;;0.41;100.00;101032.69;4996938;28;20026;-72
2022/12/11 09:58:54;;;;;;;0.40;0.40;;;;;;;0.49;100.00;101021.84;4942617;28;20318;-73
2022/12/11 10:01:22;;;;;;;0.25;0.25;;;;;;;0.47;100.00;101030.75;4969831;28;20424;-72
2022/12/11 10:04:06;;;;;;;0.30;0.30;;;;;;;0.24;100.00;101027.09;4995296;28;20417;-72
2022/12/11 10:06:55;;;;;;;0.30;0.30;;;;;;;0.19;100.00;100999.94;4988890;28;20511;-72
2022/12/11 10:09:42;;;;;;;0.30;0.30;;;;;;;0.28;100.00;101031.34;4976345;28;20030;-72
2022/12/11 10:12:16;;;;;;;0.30;0.30;;;;;;;0.21;100.00;101008.69;4989783;28;20030;-72
2022/12/11 10:15:28;;;;;;;0.40;0.40;;;;;;;0.21;100.00;101020.09;4990869;28;20432;-72
2022/12/11 10:17:55;;;;;;;0.30;0.30;;;;;;;0.14;100.00;101026.47;4988035;28;20038;-72
2022/12/11 10:20:41;;;;;;;0.40;0.40;;;;;;;-0.04;100.00;101002.41;4971580;28;20030;-72
2022/12/11 10:23:08;;;;;;;0.40;0.40;;;;;;;0.25;100.00;101023.53;4974935;28;20084;-72
2022/12/11 10:25:39;;;;;;;0.40;0.40;;;;;;;0.12;100.00;100989.56;4969005;28;20049;-72
2022/12/11 10:28:11;;;;;;;0.30;0.30;;;;;;;0.10;100.00;101003.75;4969450;28;20109;-72
2022/12/11 10:30:39;;;;;;;0.30;0.30;;;;;;;0.23;100.00;100993.66;4969352;28;20042;-72
2022/12/11 10:33:10;;;;;;;0.40;0.40;;;;;;;0.29;100.00;101028.66;4970354;28;20176;-72
2022/12/11 10:35:44;;;;;;;0.30;0.30;;;;;;;0.54;100.00;101012.00;4976728;28;20026;-72
2022/12/11 10:38:12;;;;;;;0.30;0.30;;;;;;;0.63;100.00;101025.84;4972201;28;20052;-72
2022/12/11 10:40:48;;;;;;;0.30;0.30;;;;;;;0.55;100.00;101024.31;4992774;28;20030;-72
2022/12/11 10:43:13;;;;;;;0.30;0.30;;;;;;;0.36;100.00;101015.25;4976775;28;20274;-72
2022/12/11 10:45:39;;;;;;;0.30;0.30;;;;;;;0.49;100.00;101006.00;4970071;28;20037;-72
2022/12/11 10:48:06;;;;;;;0.30;0.30;;;;;;;0.50;100.00;101009.53;4987014;28;20463;-72
2022/12/11 10:50:32;;;;;;;0.30;0.30;;;;;;;0.08;100.00;100990.59;4974657;28;20027;-72
2022/12/11 10:52:57;;;;;;;0.30;0.30;;;;;;;0.28;100.00;100995.22;4970134;28;20118;-72
2022/12/11 10:55:37;;;;;;;0.30;0.30;;;;;;;0.20;100.00;101015.72;4971775;28;20246;-72
2022/12/11 10:58:04;;;;;;;0.30;0.30;;;;;;;0.26;100.00;101010.25;4968897;28;20041;-72
2022/12/11 11:00:36;;;;;;;0.40;0.40;;;;;;;0.44;100.00;101013.22;4971498;28;20038;-72
2022/12/11 11:03:02;;;;;;;0.30;0.30;;;;;;;0.19;100.00;100998.16;4968213;28;20100;-72
2022/12/11 11:05:34;;;;;;;0.30;0.30;;;;;;;0.63;100.00;101000.25;4963202;28;20820;-72
2022/12/11 11:08:22;;;;;;;0.30;0.30;;;;;;;0.58;100.00;101004.81;4970965;28;20145;-72
2022/12/11 11:10:55;;;;;;;0.30;0.30;;;;;;;0.47;100.00;100972.63;4974155;28;20116;-72
2022/12/11 11:13:26;;;;;;;0.30;0.30;;;;;;;0.25;100.00;100987.41;4988586;28;20156;-72
2022/12/11 11:16:00;;;;;;;0.40;0.40;;;;;;;0.48;100.00;100996.34;4993301;28;20332;-72
2022/12/11 11:18:27;;;;;;;0.30;0.30;;;;;;;0.40;100.00;101004.53;4975271;28;20033;-72
2022/12/11 11:20:52;;;;;;;0.30;0.30;;;;;;;0.37;100.00;100993.22;4980048;28;20034;-72
2022/12/11 11:23:20;;;;;;;0.30;0.30;;;;;;;0.39;100.00;100979.03;4974912;28;20034;-72
2022/12/11 11:26:01;;;;;;;0.30;0.30;;;;;;;0.28;100.00;100994.34;4974137;28;20054;-72
2022/12/11 11:28:33;;;;;;;0.30;0.30;;;;;;;0.46;100.00;100989.41;4988007;28;20268;-72
2022/12/11 11:31:04;;;;;;;0.30;0.30;;;;;;;0.57;100.00;100979.31;4976891;28;20041;-72
2022/12/11 11:33:31;;;;;;;0.30;0.30;;;;;;;0.32;100.00;100961.66;4973254;28;20737;-72
2022/12/11 11:36:01;;;;;;;0.30;0.30;;;;;;;0.53;100.00;100990.94;4997619;28;20476;-72